Time;durP1;ratioP1;P1;durP2;ratioP2;P2;SDS_P1;SDS_P2;PMS_P1;PMS_P2;Temp;Humidity;BMP_temperature;BMP_pressure;BME280_temperature;BME280_humidity;BME280_pressure;Samples;Min_cycle;Max_cycle;Signal;HPM_P1;HPM_P2
2022/08/18 00:00:29;;;;;;;8.38;7.78;;;24.80;62.70;;;;;;5051542;28;20259;-60
2022/08/18 00:02:55;;;;;;;7.72;7.03;;;24.80;62.60;;;;;;5052045;28;20634;-60
2022/08/18 00:05:21;;;;;;;7.60;7.10;;;24.80;62.70;;;;;;5050743;28;20206;-60
2022/08/18 00:07:46;;;;;;;7.72;7.10;;;24.80;62.60;;;;;;5051080;28;20229;-60
2022/08/18 00:10:12;;;;;;;7.30;6.80;;;24.80;62.70;;;;;;5052479;28;20182;-60
2022/08/18 00:12:39;;;;;;;7.57;6.97;;;24.80;62.60;;;;;;5052168;28;20202;-60
2022/08/18 00:15:06;;;;;;;7.60;7.10;;;24.70;62.60;;;;;;5051276;28;20261;-60
2022/08/18 00:17:32;;;;;;;7.30;6.80;;;24.70;62.50;;;;;;5052505;28;20262;-60
2022/08/18 00:19:58;;;;;;;7.65;6.95;;;24.80;62.60;;;;;;5051742;28;20603;-60
2022/08/18 00:22:24;;;;;;;7.63;7.03;;;24.70;62.60;;;;;;5051514;28;20182;-60
2022/08/18 00:24:53;;;;;;;7.70;7.10;;;24.70;62.60;;;;;;5051950;28;20251;-60
2022/08/18 00:27:24;;;;;;;8.07;7.43;;;24.80;62.60;;;;;;5051218;28;20312;-60
2022/08/18 00:29:51;;;;;;;8.45;7.85;;;24.70;62.60;;;;;;5051830;28;20178;-60
2022/08/18 00:32:44;;;;;;;7.97;7.38;;;24.70;62.60;;;;;;5051675;28;20176;-59
2022/08/18 00:35:12;;;;;;;7.38;6.88;;;24.70;62.60;;;;;;5053837;28;20190;-59
2022/08/18 00:37:38;;;;;;;7.38;6.88;;;24.70;62.60;;;;;;5056079;28;20256;-60
2022/08/18 00:40:04;;;;;;;7.50;7.00;;;24.70;62.50;;;;;;5055971;28;20587;-60
2022/08/18 00:42:30;;;;;;;7.80;7.22;;;24.70;62.50;;;;;;5053906;28;20203;-60
2022/08/18 00:44:57;;;;;;;7.60;6.90;;;24.70;62.60;;;;;;5055809;28;20171;-60
2022/08/18 00:47:22;;;;;;;7.60;7.00;;;24.70;62.50;;;;;;5056018;28;20187;-60
2022/08/18 00:49:49;;;;;;;7.65;7.10;;;24.70;62.50;;;;;;5055203;28;20171;-60
2022/08/18 00:52:15;;;;;;;8.75;7.95;;;24.70;62.50;;;;;;5054418;28;20637;-59
2022/08/18 00:54:42;;;;;;;7.38;6.82;;;24.70;62.50;;;;;;5055657;28;20231;-60
2022/08/18 00:57:08;;;;;;;6.97;6.50;;;24.70;62.50;;;;;;5053737;28;20206;-60
2022/08/18 00:59:45;;;;;;;7.18;6.63;;;24.70;62.50;;;;;;5054277;28;20210;-60
2022/08/18 01:02:17;;;;;;;7.47;6.97;;;24.70;62.50;;;;;;5055898;28;20182;-60
2022/08/18 01:04:54;;;;;;;7.10;6.60;;;24.70;62.60;;;;;;5054317;28;20676;-59
2022/08/18 01:07:24;;;;;;;7.28;6.80;;;24.70;62.50;;;;;;5053993;28;20233;-60
2022/08/18 01:09:50;;;;;;;6.93;6.45;;;24.70;62.50;;;;;;5037343;28;20182;-60
2022/08/18 01:12:16;;;;;;;7.88;7.18;;;24.70;62.50;;;;;;5054167;28;20183;-60
2022/08/18 01:14:42;;;;;;;7.53;6.93;;;24.60;62.40;;;;;;5055542;28;20229;-60
2022/08/18 01:22:48;;;;;;;7.72;7.03;;;24.70;62.40;;;;;;5054133;28;20241;-60
2022/08/18 01:28:02;;;;;;;7.72;7.13;;;24.60;62.40;;;;;;5054982;28;20225;-60
2022/08/18 01:30:28;;;;;;;7.25;6.65;;;24.60;62.40;;;;;;5054280;28;20181;-61
2022/08/18 01:32:53;;;;;;;7.88;7.28;;;24.60;62.50;;;;;;5054630;28;20233;-59
2022/08/18 01:35:19;;;;;;;7.22;6.75;;;24.60;62.40;;;;;;5054758;28;20179;-60
2022/08/18 01:37:45;;;;;;;8.00;7.40;;;24.70;62.40;;;;;;5052597;28;20941;-60
2022/08/18 01:40:14;;;;;;;7.22;6.72;;;24.60;62.40;;;;;;5054768;28;20270;-60
2022/08/18 01:42:42;;;;;;;7.18;6.65;;;24.60;62.30;;;;;;5054848;28;20248;-60
2022/08/18 01:45:08;;;;;;;7.22;6.72;;;24.60;62.30;;;;;;5052527;28;20254;-60
2022/08/18 01:47:34;;;;;;;7.30;6.72;;;24.70;62.40;;;;;;5054591;28;20186;-59
2022/08/18 01:50:00;;;;;;;7.57;7.00;;;24.60;62.30;;;;;;5054672;28;20203;-60
2022/08/18 01:52:27;;;;;;;7.28;6.78;;;24.60;62.40;;;;;;5053861;28;20203;-59
2022/08/18 01:54:53;;;;;;;7.15;6.55;;;24.60;62.30;;;;;;5054513;28;20179;-59
2022/08/18 01:57:19;;;;;;;7.57;6.82;;;24.60;62.20;;;;;;5054560;28;20172;-60
2022/08/18 01:59:44;;;;;;;7.90;7.20;;;24.60;62.40;;;;;;5053725;28;20179;-60
2022/08/18 02:02:13;;;;;;;6.30;5.90;;;24.60;62.30;;;;;;5054514;28;20273;-60
2022/08/18 02:04:38;;;;;;;7.38;6.80;;;24.60;62.40;;;;;;5053755;28;20539;-60
2022/08/18 02:07:06;;;;;;;7.15;6.55;;;24.60;62.40;;;;;;5053263;28;20227;-60
2022/08/18 02:09:32;;;;;;;8.10;7.45;;;24.70;62.40;;;;;;5054429;28;20179;-60
2022/08/18 02:11:59;;;;;;;8.30;7.70;;;24.60;62.40;;;;;;5054243;28;20503;-60
2022/08/18 02:14:24;;;;;;;7.57;7.00;;;24.60;62.40;;;;;;5053458;28;20657;-60
2022/08/18 02:16:50;;;;;;;7.40;6.90;;;24.60;62.30;;;;;;5054167;28;20179;-60
2022/08/18 02:19:15;;;;;;;7.25;6.75;;;24.60;62.40;;;;;;5054105;28;20186;-59
2022/08/18 02:21:41;;;;;;;7.93;7.25;;;24.60;62.40;;;;;;5053407;28;20262;-59
2022/08/18 02:24:06;;;;;;;7.28;6.68;;;24.60;62.40;;;;;;5053786;28;20171;-59
2022/08/18 02:26:32;;;;;;;6.55;6.10;;;24.60;62.30;;;;;;5053616;28;20290;-60
2022/08/18 02:28:57;;;;;;;6.78;6.28;;;24.60;62.30;;;;;;5052748;28;20652;-59
2022/08/18 02:31:24;;;;;;;7.05;6.50;;;24.60;62.30;;;;;;5053699;28;20179;-59
2022/08/18 02:33:50;;;;;;;7.75;7.05;;;24.60;62.30;;;;;;5052929;28;20183;-59
2022/08/18 02:36:15;;;;;;;6.90;6.30;;;24.60;62.30;;;;;;5053618;28;20182;-60
2022/08/18 02:38:41;;;;;;;7.80;7.20;;;24.60;62.20;;;;;;5053586;28;20179;-60
2022/08/18 02:41:09;;;;;;;7.93;7.20;;;24.50;62.20;;;;;;5052609;28;20175;-60
2022/08/18 02:43:35;;;;;;;7.40;6.90;;;24.60;62.20;;;;;;5053319;28;20213;-60
2022/08/18 02:46:01;;;;;;;7.45;6.75;;;24.60;62.20;;;;;;5053082;28;20243;-60
2022/08/18 02:48:36;;;;;;;7.28;6.75;;;24.50;62.20;;;;;;5052715;28;20183;-59
2022/08/18 02:51:15;;;;;;;6.30;5.80;;;24.60;62.20;;;;;;5053349;28;20178;-59
2022/08/18 02:53:42;;;;;;;6.45;5.95;;;24.50;62.20;;;;;;5053298;28;20174;-60
2022/08/18 02:56:26;;;;;;;6.70;6.20;;;24.50;62.20;;;;;;5052030;28;20531;-59
2022/08/18 02:58:54;;;;;;;6.47;5.97;;;24.50;62.10;;;;;;5053214;28;20181;-60
2022/08/18 03:01:24;;;;;;;6.75;6.25;;;24.50;62.10;;;;;;5053164;28;20606;-60
2022/08/18 03:03:50;;;;;;;6.78;6.22;;;24.50;62.20;;;;;;5052026;28;20637;-60
2022/08/18 03:06:16;;;;;;;6.18;5.68;;;24.60;62.20;;;;;;5052708;28;20325;-60
2022/08/18 03:08:42;;;;;;;6.43;5.93;;;24.50;62.20;;;;;;5052877;28;20220;-60
2022/08/18 03:11:08;;;;;;;6.53;5.93;;;24.50;62.10;;;;;;5051878;28;20758;-60
2022/08/18 03:13:34;;;;;;;6.38;5.97;;;24.50;62.10;;;;;;5052911;28;20163;-60
2022/08/18 03:15:59;;;;;;;5.95;5.53;;;24.50;62.10;;;;;;5051983;28;20224;-60
2022/08/18 03:18:25;;;;;;;5.95;5.45;;;24.50;62.10;;;;;;5052539;28;20228;-60
2022/08/18 03:20:50;;;;;;;6.28;5.78;;;24.50;62.10;;;;;;5052367;28;20179;-60
2022/08/18 03:23:16;;;;;;;6.53;6.00;;;24.50;62.10;;;;;;5051745;28;20810;-59
2022/08/18 03:25:46;;;;;;;6.40;5.90;;;24.50;62.10;;;;;;5052401;28;20561;-60
2022/08/18 03:28:12;;;;;;;5.57;5.18;;;24.50;62.10;;;;;;5052564;28;20252;-60
2022/08/18 03:30:37;;;;;;;5.72;5.32;;;24.50;62.10;;;;;;5051527;28;20626;-60
2022/08/18 03:33:03;;;;;;;5.68;5.28;;;24.50;62.00;;;;;;5052243;28;20175;-59
2022/08/18 03:35:29;;;;;;;5.90;5.47;;;24.50;62.10;;;;;;5052279;28;20178;-60
2022/08/18 03:37:58;;;;;;;6.22;5.78;;;24.50;62.10;;;;;;5051403;28;20186;-60
2022/08/18 03:40:23;;;;;;;6.18;5.68;;;24.50;62.10;;;;;;5052236;28;20167;-60
2022/08/18 03:42:48;;;;;;;5.80;5.40;;;24.50;62.00;;;;;;5052020;28;20609;-60
2022/08/18 03:45:14;;;;;;;5.97;5.47;;;24.50;62.00;;;;;;5051533;28;20171;-60
2022/08/18 03:47:39;;;;;;;6.43;5.93;;;24.50;62.00;;;;;;5052094;28;20216;-60
2022/08/18 03:50:08;;;;;;;5.65;5.15;;;24.50;62.00;;;;;;5052070;28;20175;-60
2022/08/18 03:52:37;;;;;;;5.40;5.00;;;24.50;62.00;;;;;;5051631;28;20183;-61
2022/08/18 03:55:03;;;;;;;6.40;5.80;;;24.50;62.00;;;;;;5052437;28;20178;-60
2022/08/18 03:57:31;;;;;;;5.90;5.40;;;24.50;62.00;;;;;;5052550;28;20171;-60
2022/08/18 03:59:57;;;;;;;5.80;5.28;;;24.50;62.00;;;;;;5051472;28;20266;-60
2022/08/18 04:02:22;;;;;;;5.68;5.28;;;24.50;62.00;;;;;;5052260;28;20259;-60
2022/08/18 04:04:48;;;;;;;5.25;4.75;;;24.50;62.00;;;;;;5051917;28;20321;-60
2022/08/18 04:07:16;;;;;;;5.00;4.60;;;24.50;62.00;;;;;;5051217;28;20237;-60
2022/08/18 04:09:42;;;;;;;5.90;5.50;;;24.40;61.90;;;;;;5051901;28;20202;-60
2022/08/18 04:12:12;;;;;;;5.10;4.78;;;24.50;61.90;;;;;;5052051;28;20203;-60
2022/08/18 04:14:39;;;;;;;5.60;5.20;;;24.40;62.00;;;;;;5052122;28;20202;-60
2022/08/18 04:17:04;;;;;;;5.82;5.30;;;24.50;62.00;;;;;;5051906;28;20237;-60
2022/08/18 04:19:33;;;;;;;5.78;5.38;;;24.40;61.90;;;;;;5051120;28;20946;-60
2022/08/18 04:21:58;;;;;;;5.35;4.90;;;24.50;62.00;;;;;;5051899;28;20178;-60
2022/08/18 04:24:25;;;;;;;5.10;4.72;;;24.40;61.90;;;;;;5051734;28;20244;-60
2022/08/18 04:26:51;;;;;;;5.38;4.97;;;24.50;61.90;;;;;;5051032;28;20215;-60
2022/08/18 04:29:19;;;;;;;6.07;5.50;;;24.40;62.70;;;;;;5051870;28;20259;-60
2022/08/18 04:31:45;;;;;;;5.45;5.03;;;24.40;61.90;;;;;;5051695;28;20232;-60
2022/08/18 04:34:11;;;;;;;5.97;5.57;;;24.40;61.90;;;;;;5051189;28;20182;-60
2022/08/18 04:36:36;;;;;;;6.07;5.50;;;24.40;61.90;;;;;;5051926;28;20255;-60
2022/08/18 04:39:03;;;;;;;5.97;5.55;;;24.40;61.80;;;;;;5051553;28;20224;-60
2022/08/18 04:41:29;;;;;;;5.35;4.95;;;24.40;61.80;;;;;;5051140;28;20179;-61
2022/08/18 04:43:58;;;;;;;5.47;5.07;;;24.40;61.80;;;;;;5051906;28;20171;-60
2022/08/18 04:46:24;;;;;;;5.93;5.43;;;24.40;61.80;;;;;;5051756;28;20302;-61
2022/08/18 04:48:51;;;;;;;5.40;5.00;;;24.40;61.80;;;;;;5050821;28;20176;-60
2022/08/18 04:51:17;;;;;;;5.30;4.85;;;24.40;61.80;;;;;;5051648;28;20625;-60
2022/08/18 04:53:46;;;;;;;5.70;5.30;;;24.40;61.80;;;;;;5051859;28;20190;-60
2022/08/18 04:56:26;;;;;;;5.07;4.68;;;24.40;61.90;;;;;;5051115;28;20179;-60
2022/08/18 04:58:54;;;;;;;5.47;4.97;;;24.40;61.80;;;;;;5051513;28;20174;-60
2022/08/18 05:01:21;;;;;;;6.38;5.15;;;24.40;61.90;;;;;;5051388;28;20183;-60
2022/08/18 05:03:48;;;;;;;5.65;5.22;;;24.40;61.90;;;;;;5050895;28;20245;-60
2022/08/18 05:06:13;;;;;;;5.07;4.68;;;24.40;61.80;;;;;;5051483;28;20221;-60
2022/08/18 05:08:39;;;;;;;5.25;4.85;;;24.40;61.80;;;;;;5050974;28;20168;-60
2022/08/18 05:11:04;;;;;;;5.05;4.65;;;24.40;61.80;;;;;;5051445;28;20167;-60
2022/08/18 05:13:30;;;;;;;5.30;4.90;;;24.40;61.80;;;;;;5051424;28;20177;-60
2022/08/18 05:15:56;;;;;;;5.82;5.32;;;24.40;61.80;;;;;;5050791;28;20210;-60
2022/08/18 05:18:25;;;;;;;6.88;4.70;;;24.40;61.80;;;;;;5051678;28;20178;-60
2022/08/18 05:20:51;;;;;;;5.32;4.93;;;24.40;61.80;;;;;;5054625;28;20194;-60
2022/08/18 05:23:18;;;;;;;5.00;4.50;;;24.40;61.80;;;;;;5054462;28;20187;-60
2022/08/18 05:25:43;;;;;;;5.10;4.72;;;24.40;61.80;;;;;;5055109;28;20260;-59
2022/08/18 05:28:09;;;;;;;5.10;4.60;;;24.40;61.60;;;;;;5055142;28;20250;-60
2022/08/18 05:30:35;;;;;;;5.57;5.15;;;24.30;61.60;;;;;;5054265;28;20186;-60
2022/08/18 05:33:02;;;;;;;5.07;4.60;;;24.40;61.70;;;;;;5054846;28;20265;-60
2022/08/18 05:35:34;;;;;;;4.97;4.65;;;24.40;61.70;;;;;;5054700;28;20637;-60
2022/08/18 05:38:27;;;;;;;5.18;4.78;;;24.40;61.70;;;;;;5054011;28;20179;-60
2022/08/18 05:41:05;;;;;;;4.85;4.55;;;24.40;61.80;;;;;;5054592;28;20216;-60
2022/08/18 05:43:31;;;;;;;5.03;4.63;;;24.40;61.70;;;;;;5053797;28;20522;-60
2022/08/18 05:45:57;;;;;;;5.55;5.07;;;24.40;61.70;;;;;;5053883;28;20665;-60
2022/08/18 05:48:23;;;;;;;5.43;4.93;;;24.40;61.70;;;;;;5054594;28;20206;-60
2022/08/18 05:50:48;;;;;;;5.07;4.68;;;24.40;61.70;;;;;;5052666;28;20541;-60
2022/08/18 05:53:15;;;;;;;4.88;4.47;;;24.40;61.70;;;;;;5053349;28;20168;-59
2022/08/18 05:58:48;;;;;;;5.43;5.03;;;24.40;61.70;;;;;;5052653;28;20549;-60
2022/08/18 06:01:29;;;;;;;5.32;4.93;;;24.40;61.60;;;;;;5053318;28;20552;-62
2022/08/18 06:04:37;;;;;;;4.88;4.47;;;24.40;61.80;;;;;;5052787;28;20188;-60
2022/08/18 06:07:04;;;;;;;5.40;4.90;;;24.40;61.70;;;;;;5031063;28;20239;-61
2022/08/18 06:09:57;;;;;;;4.85;4.45;;;24.40;61.60;;;;;;5032165;28;20179;-60
2022/08/18 06:12:50;;;;;;;5.38;4.88;;;24.50;61.70;;;;;;5039902;28;20186;-60
2022/08/18 06:15:41;;;;;;;5.15;4.03;;;24.50;61.60;;;;;;5052822;28;20183;-60
2022/08/18 06:18:44;;;;;;;4.90;4.40;;;24.50;61.60;;;;;;5052858;28;20186;-60
2022/08/18 06:21:25;;;;;;;4.63;4.22;;;24.40;61.80;;;;;;5053542;28;20171;-60
2022/08/18 06:24:05;;;;;;;6.50;4.40;;;24.50;61.90;;;;;;5052901;28;20232;-60
2022/08/18 06:26:38;;;;;;;5.40;4.90;;;24.50;61.70;;;;;;5052134;28;20218;-60
2022/08/18 06:29:16;;;;;;;5.00;4.50;;;24.50;61.70;;;;;;5052897;28;20179;-60
2022/08/18 06:31:47;;;;;;;5.28;4.47;;;24.60;61.70;;;;;;5053608;28;20179;-60
2022/08/18 06:34:45;;;;;;;5.47;4.70;;;24.50;61.70;;;;;;5052167;28;20233;-60
2022/08/18 06:37:17;;;;;;;5.35;4.32;;;24.50;61.60;;;;;;5052733;28;20179;-60
2022/08/18 06:39:49;;;;;;;4.57;4.10;;;24.60;61.60;;;;;;5054057;28;20179;-60
2022/08/18 06:42:29;;;;;;;4.65;4.32;;;24.60;61.60;;;;;;5053210;28;20250;-60
2022/08/18 06:45:00;;;;;;;6.93;4.72;;;24.50;61.60;;;;;;5053526;28;20183;-61
2022/08/18 06:47:51;;;;;;;8.30;4.63;;;24.60;61.70;;;;;;5051688;28;20278;-60
2022/08/18 06:50:25;;;;;;;5.05;4.57;;;24.70;61.80;;;;;;5053558;28;20707;-60
2022/08/18 06:52:53;;;;;;;5.65;4.75;;;24.70;61.80;;;;;;5053457;28;20186;-60
2022/08/18 06:55:29;;;;;;;5.10;4.53;;;24.70;61.70;;;;;;5052906;28;20179;-60
2022/08/18 06:57:57;;;;;;;4.70;4.30;;;24.60;61.60;;;;;;5052151;28;20554;-60
2022/08/18 07:00:24;;;;;;;5.22;4.10;;;24.70;61.70;;;;;;5053480;28;20648;-60
2022/08/18 07:02:50;;;;;;;4.65;4.25;;;24.80;61.80;;;;;;5052709;28;20237;-60
2022/08/18 07:05:29;;;;;;;4.50;4.20;;;24.80;61.80;;;;;;5053247;28;20179;-60
2022/08/18 07:08:03;;;;;;;5.03;4.28;;;24.70;61.70;;;;;;5051716;28;20317;-61
2022/08/18 07:10:40;;;;;;;5.95;4.00;;;24.70;61.70;;;;;;5053103;28;20170;-60
2022/08/18 07:13:20;;;;;;;6.72;4.85;;;24.70;61.70;;;;;;5053131;28;20175;-60
2022/08/18 07:15:47;;;;;;;4.97;4.25;;;24.70;61.80;;;;;;5052363;28;20175;-60
2022/08/18 07:18:13;;;;;;;6.38;4.15;;;24.80;61.80;;;;;;5053228;28;20282;-60
2022/08/18 07:20:55;;;;;;;6.00;4.30;;;24.70;61.60;;;;;;5052939;28;20589;-58
2022/08/18 07:23:37;;;;;;;7.18;4.38;;;24.70;61.60;;;;;;5050970;28;20578;-60
2022/08/18 07:26:08;;;;;;;6.25;4.60;;;24.80;61.50;;;;;;5051606;28;21027;-59
2022/08/18 07:28:40;;;;;;;6.47;4.30;;;24.80;61.60;;;;;;5052844;28;20587;-60
2022/08/18 07:31:34;;;;;;;4.97;4.50;;;24.80;61.70;;;;;;5050835;28;20175;-60
2022/08/18 07:34:01;;;;;;;8.30;4.57;;;24.70;61.70;;;;;;5051629;28;20380;-60
2022/08/18 07:36:29;;;;;;;7.43;4.60;;;24.80;61.60;;;;;;5052100;28;20180;-60
2022/08/18 07:39:05;;;;;;;5.97;4.13;;;24.80;61.70;;;;;;5051415;28;20190;-60
2022/08/18 07:41:39;;;;;;;6.18;4.40;;;24.80;61.60;;;;;;5051523;28;20254;-60
2022/08/18 07:44:20;;;;;;;5.07;4.05;;;24.80;61.40;;;;;;5049940;28;20262;-60
2022/08/18 07:46:59;;;;;;;6.93;4.32;;;24.90;61.40;;;;;;5051273;28;20214;-60
2022/08/18 07:49:27;;;;;;;4.35;3.35;;;24.90;61.30;;;;;;5051231;28;20202;-60
2022/08/18 07:52:05;;;;;;;7.60;3.97;;;24.90;61.30;;;;;;5050432;28;20175;-60
2022/08/18 07:54:46;;;;;;;5.90;4.03;;;25.00;61.20;;;;;;5051328;28;20635;-60
2022/08/18 07:57:35;;;;;;;4.10;3.70;;;25.00;61.20;;;;;;5051369;28;20186;-60
2022/08/18 08:00:30;;;;;;;5.20;3.75;;;25.00;61.10;;;;;;5051827;28;20543;-60
2022/08/18 08:03:36;;;;;;;3.75;3.38;;;25.10;61.10;;;;;;5050646;28;20665;-60
2022/08/18 08:06:04;;;;;;;4.20;3.80;;;25.10;61.00;;;;;;5050030;28;20297;-61
2022/08/18 08:08:50;;;;;;;4.20;3.83;;;25.10;61.00;;;;;;5050840;28;20260;-60
2022/08/18 08:11:21;;;;;;;4.28;3.85;;;25.10;61.00;;;;;;5050992;28;20537;-60
2022/08/18 08:14:17;;;;;;;4.10;3.80;;;25.10;61.00;;;;;;5052227;28;20245;-60
2022/08/18 08:17:02;;;;;;;3.65;3.35;;;25.20;60.90;;;;;;5052180;28;20178;-60
2022/08/18 08:19:41;;;;;;;4.07;3.78;;;25.20;60.90;;;;;;5050131;28;20617;-60
2022/08/18 08:22:30;;;;;;;5.85;4.47;;;25.10;61.00;;;;;;5050621;28;20650;-60
2022/08/18 08:25:49;;;;;;;4.00;3.67;;;25.10;61.20;;;;;;5050862;28;20171;-60
2022/08/18 08:28:26;;;;;;;4.38;4.00;;;25.10;61.20;;;;;;5029994;28;20203;-59
2022/08/18 08:31:03;;;;;;;4.90;3.88;;;25.10;61.20;;;;;;5051896;28;20178;-60
2022/08/18 08:33:51;;;;;;;4.03;3.50;;;25.10;61.10;;;;;;5051275;28;20539;-60
2022/08/18 08:36:26;;;;;;;3.90;3.60;;;25.10;61.10;;;;;;5051003;28;20599;-59
2022/08/18 08:38:58;;;;;;;3.95;3.45;;;25.20;61.20;;;;;;5050894;28;20257;-60
2022/08/18 08:41:27;;;;;;;5.22;3.72;;;25.20;61.20;;;;;;5049911;28;20183;-60
2022/08/18 08:43:56;;;;;;;4.53;3.50;;;25.10;61.30;;;;;;5050485;28;20240;-60
2022/08/18 08:46:23;;;;;;;5.00;3.92;;;25.00;61.20;;;;;;5050422;28;20646;-60
2022/08/18 08:48:55;;;;;;;4.40;3.78;;;25.00;61.20;;;;;;5049858;28;20187;-60
2022/08/18 08:51:38;;;;;;;3.58;3.28;;;25.10;61.20;;;;;;5050663;28;20175;-60
2022/08/18 08:54:20;;;;;;;4.07;3.75;;;25.10;61.30;;;;;;5051327;28;20183;-59
2022/08/18 08:56:47;;;;;;;3.50;3.30;;;25.00;61.30;;;;;;5054326;28;20178;-60
2022/08/18 08:59:15;;;;;;;4.38;3.33;;;25.00;61.40;;;;;;5054792;28;20175;-60
2022/08/18 09:02:03;;;;;;;3.95;3.65;;;25.00;61.60;;;;;;5055059;28;20176;-60
2022/08/18 09:04:49;;;;;;;3.88;3.40;;;24.90;61.60;;;;;;5055609;28;20199;-61
2022/08/18 09:07:35;;;;;;;3.72;3.42;;;24.90;61.70;;;;;;5055332;28;20341;-60
2022/08/18 09:10:27;;;;;;;3.33;3.13;;;24.90;61.60;;;;;;5054208;28;20179;-60
2022/08/18 09:13:12;;;;;;;3.65;3.30;;;25.00;61.30;;;;;;5053977;28;20179;-60
2022/08/18 09:15:50;;;;;;;3.75;3.45;;;25.10;61.20;;;;;;5053618;28;20190;-60
2022/08/18 09:18:18;;;;;;;3.67;3.30;;;25.20;61.00;;;;;;5054173;28;20175;-60
2022/08/18 09:20:51;;;;;;;3.60;3.30;;;25.20;60.90;;;;;;5055255;28;20180;-60
2022/08/18 09:23:25;;;;;;;3.70;3.28;;;25.30;60.80;;;;;;5053255;28;20642;-60
2022/08/18 09:25:55;;;;;;;3.83;3.50;;;25.30;60.60;;;;;;5053833;28;20355;-60
2022/08/18 09:29:00;;;;;;;3.20;3.00;;;25.40;60.70;;;;;;5053942;28;20183;-60
2022/08/18 09:31:26;;;;;;;4.15;3.83;;;25.30;60.80;;;;;;5053984;28;20178;-60
2022/08/18 09:34:17;;;;;;;3.53;3.22;;;25.30;60.80;;;;;;5053755;28;20171;-60
2022/08/18 09:37:03;;;;;;;3.60;3.30;;;25.30;61.00;;;;;;5054480;28;20176;-60
2022/08/18 09:42:35;;;;;;;3.88;3.47;;;25.20;61.00;;;;;;5053886;28;20245;-60
2022/08/18 09:45:22;;;;;;;3.58;3.38;;;25.20;61.00;;;;;;5054301;28;20177;-60
2022/08/18 09:47:54;;;;;;;3.35;3.05;;;25.30;60.90;;;;;;5043460;28;20195;-60
2022/08/18 09:50:28;;;;;;;3.40;3.20;;;25.40;60.80;;;;;;5054144;28;20201;-60
2022/08/18 09:52:58;;;;;;;3.88;3.55;;;25.40;60.60;;;;;;5054434;28;20179;-60
2022/08/18 09:55:23;;;;;;;3.65;3.35;;;25.50;60.50;;;;;;5053757;28;20312;-60
2022/08/18 09:58:24;;;;;;;3.53;3.22;;;25.50;60.50;;;;;;5053965;28;20321;-60
2022/08/18 10:01:17;;;;;;;3.55;3.13;;;25.40;60.50;;;;;;5054430;28;20249;-60
2022/08/18 10:03:43;;;;;;;3.58;3.35;;;25.40;60.70;;;;;;5054664;28;20621;-60
2022/08/18 10:06:13;;;;;;;3.80;3.50;;;25.30;60.90;;;;;;5051139;28;20211;-60
2022/08/18 10:08:53;;;;;;;3.58;3.28;;;25.30;60.90;;;;;;5053299;28;20541;-60
2022/08/18 10:11:28;;;;;;;3.50;3.30;;;25.30;61.00;;;;;;5052995;28;20220;-61
2022/08/18 10:14:12;;;;;;;3.40;3.10;;;25.20;61.00;;;;;;5054819;28;20181;-61
2022/08/18 10:16:59;;;;;;;3.55;3.25;;;25.20;61.00;;;;;;5054938;28;20174;-60
2022/08/18 10:19:28;;;;;;;3.58;3.28;;;25.20;61.00;;;;;;5054066;28;20198;-61
2022/08/18 10:21:54;;;;;;;3.47;3.20;;;25.20;61.00;;;;;;5054593;28;20190;-60
2022/08/18 10:24:21;;;;;;;3.38;3.08;;;25.30;60.80;;;;;;5054667;28;20167;-60
2022/08/18 10:26:49;;;;;;;3.50;3.30;;;25.40;60.60;;;;;;5052720;28;20234;-60
2022/08/18 10:29:27;;;;;;;3.75;3.20;;;25.50;60.50;;;;;;5054737;28;20549;-60
2022/08/18 10:31:56;;;;;;;3.80;3.00;;;25.50;60.50;;;;;;5054647;28;20171;-60
2022/08/18 10:34:41;;;;;;;3.13;2.92;;;25.40;60.50;;;;;;5053972;28;20217;-61
2022/08/18 10:37:37;;;;;;;3.55;3.25;;;25.30;60.60;;;;;;5054453;28;20217;-60
2022/08/18 10:40:08;;;;;;;3.10;2.90;;;25.30;60.90;;;;;;5048083;28;20184;-60
2022/08/18 10:42:50;;;;;;;3.30;3.10;;;25.20;60.90;;;;;;5054330;28;20682;-60
2022/08/18 10:45:23;;;;;;;3.70;3.40;;;25.20;60.90;;;;;;5054446;28;20654;-60
2022/08/18 10:48:03;;;;;;;3.72;3.42;;;25.20;61.10;;;;;;5052268;28;20191;-60
2022/08/18 10:50:32;;;;;;;3.33;3.08;;;25.20;61.10;;;;;;5053096;28;20199;-60
2022/08/18 10:53:23;;;;;;;3.80;3.17;;;25.10;61.10;;;;;;5052851;28;20182;-60
2022/08/18 10:55:54;;;;;;;3.88;3.30;;;25.10;61.90;;;;;;5052981;28;20175;-60
2022/08/18 10:58:35;;;;;;;4.03;3.67;;;25.10;61.10;;;;;;5059865;28;20187;-60
2022/08/18 11:01:25;;;;;;;3.60;3.30;;;25.10;61.10;;;;;;5064315;28;20166;-60
2022/08/18 11:04:03;;;;;;;3.83;3.42;;;25.10;61.00;;;;;;5053794;28;20227;-60
2022/08/18 11:06:28;;;;;;;3.35;3.13;;;25.20;61.10;;;;;;5071192;28;20233;-61
2022/08/18 11:08:58;;;;;;;3.25;3.00;;;25.20;61.00;;;;;;5071732;28;20193;-60
2022/08/18 11:11:32;;;;;;;3.65;3.35;;;25.20;61.00;;;;;;5072681;28;20253;-61
2022/08/18 11:14:19;;;;;;;3.50;3.20;;;25.20;61.00;;;;;;5063257;28;20645;-61
2022/08/18 11:16:47;;;;;;;3.38;3.10;;;25.20;60.90;;;;;;5053563;28;20571;-61
2022/08/18 11:19:14;;;;;;;3.60;3.08;;;25.20;60.90;;;;;;5053023;28;20254;-61
2022/08/18 11:21:44;;;;;;;3.45;3.15;;;25.20;60.90;;;;;;5052865;28;20179;-60
2022/08/18 11:24:13;;;;;;;5.43;3.30;;;25.20;60.80;;;;;;5053621;28;20633;-62
2022/08/18 11:26:41;;;;;;;6.65;3.50;;;25.30;61.50;;;;;;5053431;28;20286;-61
2022/08/18 11:29:23;;;;;;;6.28;3.47;;;25.30;61.60;;;;;;5052826;28;20179;-61
2022/08/18 11:31:52;;;;;;;6.90;3.53;;;25.30;61.20;;;;;;5068729;28;20569;-60
2022/08/18 11:34:19;;;;;;;7.13;3.60;;;25.30;61.80;;;;;;5056045;28;20218;-60
2022/08/18 11:36:56;;;;;;;3.88;3.40;;;25.40;61.30;;;;;;5071460;28;20182;-60
2022/08/18 11:39:22;;;;;;;7.80;3.58;;;25.40;61.20;;;;;;5073466;28;20170;-61
2022/08/18 11:41:48;;;;;;;4.57;3.67;;;25.40;61.90;;;;;;5073480;28;20584;-60
2022/08/18 11:44:18;;;;;;;3.55;3.25;;;25.40;61.20;;;;;;5072718;28;20174;-60
2022/08/18 11:46:43;;;;;;;6.95;3.45;;;25.40;61.60;;;;;;5072977;28;20239;-60
2022/08/18 11:49:25;;;;;;;5.35;3.60;;;25.40;61.70;;;;;;5072158;28;20174;-59
2022/08/18 11:52:02;;;;;;;6.10;3.83;;;25.40;61.60;;;;;;5072968;28;20186;-60
2022/08/18 11:54:39;;;;;;;7.43;3.80;;;25.40;61.80;;;;;;5072109;28;20205;-59
2022/08/18 11:57:28;;;;;;;3.53;3.22;;;25.40;61.90;;;;;;5072208;28;20710;-60
2022/08/18 11:59:54;;;;;;;4.43;3.47;;;25.40;62.10;;;;;;5072963;28;20174;-60
2022/08/18 12:02:22;;;;;;;3.88;3.15;;;25.40;62.00;;;;;;5073116;28;20235;-60
2022/08/18 12:04:51;;;;;;;5.47;3.30;;;25.40;61.80;;;;;;5066136;28;20171;-60
2022/08/18 12:07:28;;;;;;;4.90;3.20;;;25.40;61.70;;;;;;5051612;28;20326;-60
2022/08/18 12:10:23;;;;;;;6.60;3.83;;;25.50;61.70;;;;;;5036432;28;20178;-60
2022/08/18 12:12:51;;;;;;;5.35;3.53;;;25.50;61.60;;;;;;5052166;28;20206;-60
2022/08/18 12:15:16;;;;;;;7.55;3.45;;;25.50;61.60;;;;;;5052336;28;20625;-61
2022/08/18 12:17:44;;;;;;;6.78;4.40;;;25.50;61.40;;;;;;5052402;28;20213;-60
2022/08/18 12:20:10;;;;;;;6.88;3.60;;;25.50;61.30;;;;;;5052809;28;20175;-59
2022/08/18 12:22:36;;;;;;;7.15;3.80;;;25.50;61.20;;;;;;5052584;28;20229;-59
2022/08/18 12:25:04;;;;;;;8.20;3.30;;;25.50;62.10;;;;;;5051724;28;20186;-59
2022/08/18 12:27:30;;;;;;;8.82;3.08;;;25.50;61.20;;;;;;5052460;28;20215;-59
2022/08/18 12:29:57;;;;;;;4.72;3.22;;;25.50;61.10;;;;;;5052154;28;20178;-59
2022/08/18 12:32:23;;;;;;;9.05;3.67;;;25.50;61.10;;;;;;5051930;28;20175;-59
2022/08/18 12:34:49;;;;;;;4.03;3.10;;;25.50;61.10;;;;;;5052420;28;20171;-59
2022/08/18 12:37:16;;;;;;;4.47;3.03;;;25.50;61.00;;;;;;5052329;28;20228;-59
2022/08/18 12:39:41;;;;;;;4.82;3.30;;;25.50;61.00;;;;;;5051915;28;20176;-59
2022/08/18 12:42:07;;;;;;;5.88;3.45;;;25.50;61.00;;;;;;5052568;28;20175;-60
2022/08/18 12:44:37;;;;;;;5.65;3.15;;;25.50;60.90;;;;;;5052761;28;20193;-61
2022/08/18 12:47:04;;;;;;;3.65;3.35;;;25.60;61.10;;;;;;5051572;28;20583;-59
2022/08/18 12:49:29;;;;;;;3.40;3.10;;;25.60;61.00;;;;;;5051239;28;20179;-60
2022/08/18 12:51:55;;;;;;;4.00;2.95;;;25.60;60.90;;;;;;5052105;28;20669;-59
2022/08/18 12:54:21;;;;;;;3.40;3.03;;;25.60;61.80;;;;;;5051838;28;20175;-59
2022/08/18 12:56:49;;;;;;;6.63;3.25;;;25.60;60.90;;;;;;5052369;28;20181;-59
2022/08/18 12:59:14;;;;;;;6.43;2.90;;;25.60;60.90;;;;;;5051419;28;20304;-60
2022/08/18 13:01:40;;;;;;;3.33;3.03;;;25.60;61.00;;;;;;5051764;28;20694;-60
2022/08/18 13:04:06;;;;;;;3.00;2.70;;;25.60;60.90;;;;;;5052210;28;20186;-60
2022/08/18 13:06:33;;;;;;;4.53;2.80;;;25.60;60.90;;;;;;5071882;28;20233;-60
2022/08/18 13:08:58;;;;;;;3.15;2.95;;;25.50;60.90;;;;;;5072704;28;20586;-59
2022/08/18 13:11:24;;;;;;;3.35;2.80;;;25.50;60.90;;;;;;5075294;28;20663;-59
2022/08/18 13:13:50;;;;;;;3.78;2.90;;;25.50;60.90;;;;;;5071491;28;20702;-58
2022/08/18 13:16:17;;;;;;;4.60;3.25;;;25.50;61.90;;;;;;5072185;28;20583;-59
2022/08/18 13:18:42;;;;;;;5.50;3.10;;;25.50;61.10;;;;;;5072332;28;20175;-59
2022/08/18 13:21:10;;;;;;;4.30;3.05;;;25.50;61.10;;;;;;5071224;28;20220;-59
2022/08/18 13:23:36;;;;;;;5.93;3.10;;;25.50;61.10;;;;;;5072299;28;20302;-59
2022/08/18 13:26:01;;;;;;;4.00;3.22;;;25.50;61.10;;;;;;5071979;28;20707;-59